Atkins, Arkansas
Current Conditions -  °F | °C
As of 8:53 AM on Monday 24 Nov 2014 (Local Time) from KRUE Reporting Station
Clear Clear  
Wind Chill: 42°   Ceiling: Unl
Heat Index: 47°   Visibility: 10mi
Dew Point: 34°   Wind: 10mph
Humidity: 61%   Direction: 280°W
Pressure: 29.87"   Gusts: 22mph
Location:  35.25°N, 92.94°W
Report Text: KRUE 241453Z AUTO 28009G19KT 10SM CLR 08/01 A2987 RMK AO2 SLP111 T00830011 53026
Loading
Personal Weather Stations






























Interactive Weather Map New forecast layout! Learn more

10-Day Weather Forecast

Advertisements
Track Severe Weather on mobile